Mid Labrador Coast: Past 24 Hour Conditions

 

Natashquan Airport

08:00 PM EDT 25 July 2014
This table is a summary of hourly weather conditions for the past 24 hours.
Date / Time
(EDT)
Wind(knots) Conditions Visibility(km) Pressure(kPa) Air tempC) Relative humidity(%) Dew pointC)
25 July 2014
20:00 WSW 10 Clear 16 100.6 15 76 11
19:00 WSW 8 Sunny 16 100.6 15 72 10
18:00 SW 11 gust 16 Sunny 16 100.6 16 65 10
17:00 SW 11 Sunny 16 100.6 17 65 10
16:00 WSW 10 gust 16 Sunny 16 100.6 18 61 11
15:00 WSW 11 Sunny 16 100.6 19 56 10
14:00 SW 8 Sunny 16 100.7 20 51 10
13:00 W 7 Sunny 16 100.7 19 51 9
12:00 WSW 11 gust 16 Sunny 16 100.7 17 60 10
11:00 WSW 11 Sunny 16 100.8 17 63 10
10:00 W 9 Sunny 16 100.8 17 68 11
9:00 WSW 9 Sunny 16 100.8 16 72 11
8:00 W 6 Sunny 16 100.8 15 77 11
7:00 W 4 Sunny 16 100.8 14 88 12
6:00 N 3 N/A 16 100.8 10 98 9
5:00 N 2 Sunny 16 100.8 7 98 6
4:00 calm Mist 1 100.8 8 97 7
3:00 NNW 2 N/A 16 100.8 10 95 9
2:00 W 4 N/A 16 100.8 11 90 9
1:00 N/A N/A N/A N/A N/A N/A N/A
0:00 W 6 N/A 16 100.8 12 82 9
24 July 2014
23:00 N/A N/A N/A N/A N/A N/A N/A
22:00 WSW 7 N/A 16 100.8 13 78 9
21:00 SSW 6 Clear 16 100.8 13 N/A N/A
20:00 W 7 N/A 16 100.8 14 68 9
 
Map of Atlantic - Newfoundland marine weather areas Southwestern Grand Banks - 44138 Banquereau - 44139 Tail of the Bank - 44140 Nickerson Bank - 44251 Northeast Burgeo Bank - 44255 Blanc-Sablon Airport Cap Whittle Chevery Natashquan Airport Heath Point Miscou Island Grand Étang Ingonish Beach North Mountain St.Paul Island J.A. Douglas McCurdy Sydney Airport Charlottetown Airport East Point North Cape Argentia Bonavista Burgeo Cape Race Corner Brook Daniel's Harbour Englee Ferolle Point La Scie Port aux Basques Rocky Harbour Sagona Island St. Anthony Airport St. John's Int'l Airport St. Lawrence Stephenville Airport Twillingate Winterland Wreckhouse Cartwright Airport Mary's Harbour Grates Cove Pool's Island Marticot Island Long Pond Îles de la Madeleine Airport
Legend: buoyBuoy land stationLand Station